Terminal Aerodrome Forecast
Issued by NWS

Home | Current Version | Previous Version | Text Only | Print | Product List | Glossary On
Versions: 1 2 3 4 5 6 7 8 9 10 11 12 13
000
FTAK31 PAJN 022300
TAFAPG
TAF
PAPG 022324Z 0300/0324 21008KT P6SM VCSH SCT025 OVC050
     FM030800 20003KT P6SM SCT015 OVC040
     FM032100 04006KT P6SM SCT040
      AMD LTD TO CLD VIS AND WIND 0306/0315=

USA.gov is the U.S. government's official web portal to all federal, state and local government web resources and services.